KPTW/PTW METAR and TAF weather

Enter ICAO airport designator
Station Type Date Time Source
KPTW METAR 2020/09/22 08:54 UTC NOAA

KPTW 220854Z AUTO 00000KT 10SM CLR 03/02 A3030 RMK AO2 SLP260 T00330022 56018


Station Type Date Time Source
KPTW Decoded METAR 2020/09/22 08:54 UTC NOAA

POTTSTOWN LIMERICK AIRPORT, PA, United States (KPTW) 40-14N 075-33W 89M
Sep 22, 2020 - 04:54 AM EDT / 2020.09.22 0854 UTC
Wind: Calm:0
Visibility: 10 mile(s):0
Sky conditions: clear
Temperature: 37.9 F (3.3 C)
Dew Point: 36.0 F (2.2 C)
Relative Humidity: 92%
Pressure (altimeter): 30.3 in. Hg (1026 hPa)
Pressure tendency: 0.05 inches (1.8 hPa) lower than three hours ago
ob: KPTW 220854Z AUTO 00000KT 10SM CLR 03/02 A3030 RMK AO2 SLP260 T00330022 56018
cycle: 9

Station Type Date Time Source
KPTW TAF UTC NOAA

Error!

Example: see airport list